Time;durP1;ratioP1;P1;durP2;ratioP2;P2;SDS_P1;SDS_P2;PMS_P1;PMS_P2;Temp;Humidity;BMP_temperature;BMP_pressure;BME280_temperature;BME280_humidity;BME280_pressure;Samples;Min_cycle;Max_cycle;Signal;HPM_P1;HPM_P2
2022/03/10 00:02:18;;;;;;;;;;;5.50;42.40;;;3.61;46.00;102517.69;8242968;28;19940;-81
2022/03/10 00:06:40;;;;;;;;;;;5.40;42.40;;;3.65;46.05;102534.94;8251386;28;19921;-81
2022/03/10 00:11:01;;;;;;;;;;;5.40;42.50;;;3.49;45.87;102515.94;8255599;28;20016;-81
2022/03/10 00:15:23;;;;;;;;;;;5.40;42.50;;;3.49;46.10;102523.69;8246898;28;19921;-82
2022/03/10 00:19:45;;;;;;;;;;;5.30;42.50;;;3.36;45.96;102527.94;8246411;28;19918;-82
2022/03/10 00:24:07;;;;;;;;;;;5.20;42.50;;;3.37;45.85;102540.00;8245889;28;19924;-81
2022/03/10 00:28:28;;;;;;;;;;;5.20;42.50;;;3.36;46.06;102547.75;8218958;28;19925;-82
2022/03/10 00:32:51;;;;;;;;;;;5.00;42.50;;;3.29;45.91;102545.16;8261347;28;19918;-82
2022/03/10 00:37:13;;;;;;;;;;;5.10;42.60;;;3.15;46.04;102533.88;8249175;28;19927;-82
2022/03/10 00:41:34;;;;;;;;;;;5.10;42.50;;;3.17;46.10;102562.28;8248797;28;19917;-83
2022/03/10 00:45:56;;;;;;;;;;;5.00;42.50;;;3.02;45.96;102542.41;8237497;28;19922;-83
2022/03/10 00:50:20;;;;;;;;;;;4.90;42.50;;;2.97;46.39;102549.25;8263454;28;20000;-83
2022/03/10 00:54:42;;;;;;;;;;;4.90;42.60;;;2.83;46.27;102528.53;8249564;28;20012;-83
2022/03/10 00:59:03;;;;;;;;;;;4.90;42.60;;;3.01;46.47;102564.78;8263570;28;20020;-83
2022/03/10 01:03:25;;;;;;;;;;;4.80;42.60;;;2.84;46.18;102550.94;8264055;28;20024;-83
2022/03/10 01:07:46;;;;;;;;;;;4.60;42.60;;;2.75;46.34;102548.25;8259591;28;19928;-83
2022/03/10 01:12:08;;;;;;;;;;;4.70;42.60;;;2.85;46.22;102570.69;8249258;28;20016;-83
2022/03/10 01:16:29;;;;;;;;;;;4.60;42.60;;;2.75;46.44;102563.75;8262899;28;19917;-83
2022/03/10 01:20:51;;;;;;;;;;;4.60;42.70;;;2.81;46.72;102584.44;8262356;28;20048;-84
2022/03/10 01:25:13;;;;;;;;;;;4.60;42.80;;;2.83;46.30;102590.47;8249037;28;20012;-83
2022/03/10 01:29:36;;;;;;;;;;;4.60;42.80;;;2.75;46.64;102574.91;8276279;28;20000;-83
2022/03/10 01:33:59;;;;;;;;;;;4.60;42.90;;;2.72;46.38;102576.63;8250595;28;20009;-83
2022/03/10 01:38:20;;;;;;;;;;;4.70;42.90;;;2.81;46.52;102589.59;8262442;28;20012;-83
2022/03/10 01:42:42;;;;;;;;;;;4.60;42.80;;;2.61;46.63;102567.09;8249090;28;20009;-83
2022/03/10 01:47:05;;;;;;;;;;;4.60;42.90;;;2.78;46.60;102600.75;8249756;28;19922;-83
2022/03/10 01:51:28;;;;;;;;;;;4.60;42.90;;;2.66;46.55;102591.19;8242264;28;20203;-82
2022/03/10 01:55:49;;;;;;;;;;;4.60;42.90;;;2.72;46.76;102605.00;8264723;28;20008;-82
2022/03/10 02:00:13;;;;;;;;;;;4.50;42.80;;;2.67;46.47;102594.63;8261178;28;20000;-83
2022/03/10 02:04:35;;;;;;;;;;;4.60;42.90;;;2.49;46.53;102563.56;8254033;28;20024;-82
2022/03/10 02:13:36;;;;;;;;;;;4.50;42.80;;;2.56;46.60;102604.88;8258343;28;20000;-84
2022/03/10 02:17:58;;;;;;;;;;;4.50;42.90;;;2.46;46.41;102587.63;8241323;28;20012;-85
2022/03/10 02:22:21;;;;;;;;;;;4.20;42.80;;;2.42;46.73;102572.94;8255598;28;20024;-84
2022/03/10 02:26:42;;;;;;;;;;;4.30;42.90;;;2.44;46.61;102592.75;8265374;28;20290;-85
2022/03/10 02:31:04;;;;;;;;;;;4.40;42.90;;;2.31;46.68;102570.28;8247532;28;20369;-86
2022/03/10 02:35:26;;;;;;;;;;;4.30;42.90;;;2.36;46.92;102589.22;8234576;28;20353;-86
2022/03/10 02:39:48;;;;;;;;;;;4.30;42.90;;;2.29;46.73;102590.00;8243900;28;20013;-86
2022/03/10 02:44:09;;;;;;;;;;;4.10;42.80;;;2.27;46.82;102590.84;8254127;28;20012;-86
2022/03/10 02:48:31;;;;;;;;;;;4.10;42.90;;;2.15;46.66;102587.31;8253389;28;20447;-85
2022/03/10 02:52:52;;;;;;;;;;;4.20;43.00;;;2.05;47.00;102579.47;8255006;28;20000;-85
2022/03/10 02:57:14;;;;;;;;;;;4.20;43.00;;;2.24;46.74;102622.59;8254222;28;19997;-85
2022/03/10 03:01:36;;;;;;;;;;;4.10;43.00;;;2.18;46.95;102613.09;8250868;28;20351;-85
2022/03/10 03:05:57;;;;;;;;;;;4.10;43.00;;;2.12;46.69;102610.47;8244868;28;20000;-85
2022/03/10 03:10:19;;;;;;;;;;;4.10;43.00;;;2.10;46.97;102614.75;8251957;28;20008;-85
2022/03/10 03:14:41;;;;;;;;;;;4.10;43.00;;;2.11;46.79;102623.38;8241094;28;20004;-84
2022/03/10 03:19:02;;;;;;;;;;;4.10;43.00;;;2.09;46.83;102625.91;8239353;28;20013;-84
2022/03/10 03:23:24;;;;;;;;;;;4.10;43.00;;;2.17;46.78;102655.19;8239309;28;20016;-84
2022/03/10 03:27:46;;;;;;;;;;;4.00;42.90;;;2.00;46.97;102633.56;8252282;28;19937;-84
2022/03/10 03:32:08;;;;;;;;;;;4.00;42.90;;;2.03;46.90;102648.19;8250638;28;19924;-84
2022/03/10 03:36:29;;;;;;;;;;;4.00;42.90;;;1.74;46.86;102610.91;8265705;28;20016;-84
2022/03/10 03:40:51;;;;;;;;;;;4.30;43.00;;;1.85;47.10;102641.94;8250996;28;20000;-84
2022/03/10 03:45:12;;;;;;;;;;;3.90;42.80;;;1.78;46.87;102647.88;8266352;28;20012;-84
2022/03/10 03:49:34;;;;;;;;;;;3.80;42.80;;;1.71;46.96;102671.84;8230795;28;19929;-84
2022/03/10 03:53:55;;;;;;;;;;;4.00;43.00;;;1.60;47.20;102657.97;8252887;28;20008;-84
2022/03/10 03:58:17;;;;;;;;;;;3.80;43.10;;;1.64;47.11;102659.72;8252712;28;20021;-84
2022/03/10 04:02:38;;;;;;;;;;;3.50;43.10;;;1.62;47.09;102657.13;8266357;28;20020;-84
2022/03/10 04:07:00;;;;;;;;;;;3.70;43.20;;;1.51;46.85;102627.78;8240692;28;20298;-84
2022/03/10 04:11:22;;;;;;;;;;;3.70;43.20;;;1.74;47.31;102685.59;8251689;28;20363;-84
2022/03/10 04:15:43;;;;;;;;;;;3.70;43.30;;;1.75;47.32;102679.59;8265619;28;20332;-84
2022/03/10 04:20:08;;;;;;;;;;;3.70;43.70;;;1.72;46.91;102673.56;8243754;28;20120;-84
2022/03/10 04:24:29;;;;;;;;;;;3.70;43.30;;;1.69;47.28;102679.53;8248971;28;20017;-83
2022/03/10 04:28:51;;;;;;;;;;;3.70;43.20;;;1.78;46.89;102691.66;8237012;28;19921;-84
2022/03/10 04:33:12;;;;;;;;;;;3.70;43.20;;;1.69;47.33;102689.81;8250108;28;20004;-83
2022/03/10 04:37:34;;;;;;;;;;;3.60;43.20;;;1.69;47.39;102704.41;8250602;28;20000;-83
2022/03/10 04:41:55;;;;;;;;;;;3.70;43.20;;;1.65;46.87;102702.66;8237376;28;19996;-82
2022/03/10 04:46:44;;;;;;;;;;;3.60;43.20;;;1.43;47.17;102676.63;8262241;28;19932;-82
2022/03/10 04:51:08;;;;;;;;;;;3.80;43.30;;;1.37;47.18;102676.50;8252331;28;20012;-82
2022/03/10 04:55:29;;;;;;;;;;;3.60;43.20;;;1.47;47.25;102710.97;8249126;28;20405;-82
2022/03/10 04:59:51;;;;;;;;;;;3.50;43.20;;;1.42;47.52;102698.03;8239509;28;20330;-81
2022/03/10 05:04:12;;;;;;;;;;;3.30;43.20;;;1.36;47.36;102691.94;8222668;28;20404;-81
2022/03/10 05:08:34;;;;;;;;;;;3.40;43.30;;;1.36;47.21;102687.66;8225603;28;20298;-81
2022/03/10 05:12:57;;;;;;;;;;;3.40;43.40;;;1.50;47.39;102719.59;8262705;28;20016;-81
2022/03/10 05:17:18;;;;;;;;;;;3.50;43.40;;;1.45;47.25;102704.94;8232741;28;20443;-81
2022/03/10 05:21:40;;;;;;;;;;;3.50;43.50;;;1.50;47.32;102708.44;8248291;28;20622;-81
2022/03/10 05:26:01;;;;;;;;;;;3.10;43.30;;;1.32;47.39;102679.03;8249510;28;20004;-82
2022/03/10 05:30:23;;;;;;;;;;;3.50;43.50;;;1.48;47.30;102705.84;8247797;28;20016;-81
2022/03/10 05:34:44;;;;;;;;;;;3.50;43.50;;;1.30;47.33;102678.13;8249536;28;20009;-81
2022/03/10 05:39:06;;;;;;;;;;;3.50;43.50;;;1.44;47.67;102700.66;8248413;28;20009;-81
2022/03/10 05:43:28;;;;;;;;;;;3.50;43.50;;;1.38;47.53;102697.94;8247460;28;20020;-82
2022/03/10 05:47:51;;;;;;;;;;;3.50;43.50;;;1.53;47.41;102735.09;8238630;28;20055;-81
2022/03/10 05:52:14;;;;;;;;;;;3.50;43.50;;;1.52;47.75;102735.09;8260960;28;20331;-81
2022/03/10 05:56:35;;;;;;;;;;;3.50;43.40;;;1.47;47.56;102735.00;8259672;28;20462;-81
2022/03/10 06:00:57;;;;;;;;;;;3.50;43.50;;;1.31;47.74;102710.75;8234705;28;19993;-81
2022/03/10 06:05:18;;;;;;;;;;;3.50;43.50;;;1.26;47.26;102699.50;8252370;28;20020;-81
2022/03/10 06:09:40;;;;;;;;;;;3.60;43.50;;;1.42;47.78;102720.34;8228837;28;19928;-81
2022/03/10 06:14:02;;;;;;;;;;;3.40;43.50;;;1.37;47.66;102722.84;8268149;28;20008;-81
2022/03/10 06:18:23;;;;;;;;;;;3.50;43.50;;;1.37;47.49;102727.13;8247079;28;20009;-81
2022/03/10 06:22:45;;;;;;;;;;;3.50;43.50;;;1.47;47.64;102750.44;8265792;28;20012;-81
2022/03/10 06:27:06;;;;;;;;;;;3.40;43.50;;;1.41;47.71;102740.06;8261891;28;19928;-82
2022/03/10 06:31:28;;;;;;;;;;;3.30;43.50;;;1.36;47.92;102735.69;8260029;28;20012;-83
2022/03/10 06:35:49;;;;;;;;;;;3.40;43.70;;;1.29;47.80;102735.59;8227891;28;20012;-84
2022/03/10 06:40:11;;;;;;;;;;;3.40;43.80;;;1.38;47.51;102744.28;8244442;28;20012;-83
2022/03/10 06:44:33;;;;;;;;;;;3.50;44.00;;;1.55;48.04;102771.16;8257971;28;20020;-83
2022/03/10 06:48:55;;;;;;;;;;;3.50;44.10;;;1.48;47.73;102759.91;8261193;28;19928;-84
2022/03/10 06:53:16;;;;;;;;;;;3.50;44.10;;;1.52;48.05;102748.81;8223740;28;19924;-82
2022/03/10 06:57:38;;;;;;;;;;;3.60;44.70;;;1.70;48.08;102767.94;8251948;28;19918;-81
2022/03/10 07:02:00;;;;;;;;;;;3.70;44.40;;;1.72;48.03;102761.97;8244989;28;20428;-81
2022/03/10 07:06:21;;;;;;;;;;;3.60;44.40;;;1.91;47.94;102790.56;8256837;28;20004;-81
2022/03/10 07:10:43;;;;;;;;;;;4.10;44.90;;;1.96;48.31;102770.91;8262162;28;20298;-81
2022/03/10 07:15:06;;;;;;;;;;;4.00;44.90;;;2.18;48.26;102792.66;8253552;28;20367;-82
2022/03/10 07:19:27;;;;;;;;;;;4.10;44.90;;;2.38;48.17;102790.34;8239153;28;20036;-82
2022/03/10 07:23:50;;;;;;;;;;;4.30;45.20;;;2.46;48.52;102782.69;8249513;28;19922;-82
2022/03/10 07:28:11;;;;;;;;;;;4.50;45.80;;;2.68;48.54;102794.13;8237697;28;19921;-82
2022/03/10 07:32:35;;;;;;;;;;;4.60;45.50;;;2.77;48.41;102795.06;8261461;28;19922;-82
2022/03/10 07:36:57;;;;;;;;;;;4.80;45.80;;;2.95;48.14;102798.72;8230774;28;19928;-82
2022/03/10 07:41:18;;;;;;;;;;;4.90;45.70;;;3.16;48.27;102822.16;8239523;28;20524;-84
2022/03/10 07:45:40;;;;;;;;;;;5.10;46.20;;;3.22;48.68;102798.09;8224641;28;19928;-85
2022/03/10 07:50:03;;;;;;;;;;;5.20;45.90;;;3.37;48.28;102808.53;8231389;28;20323;-81
2022/03/10 07:54:25;;;;;;;;;;;5.40;45.60;;;3.57;48.58;102815.59;8226574;28;19930;-81
2022/03/10 07:58:47;;;;;;;;;;;5.60;46.10;;;3.71;48.74;102808.81;8243826;28;19922;-81
2022/03/10 08:03:12;;;;;;;;;;;5.70;46.30;;;3.98;48.70;102811.56;8251370;28;20466;-82
2022/03/10 08:07:34;;;;;;;;;;;5.90;47.60;;;4.20;48.72;102822.88;8225841;28;20405;-82
2022/03/10 08:11:55;;;;;;;;;;;6.10;47.40;;;4.46;48.72;102826.47;8251295;28;19943;-85
2022/03/10 08:16:17;;;;;;;;;;;6.30;46.90;;;4.61;48.78;102821.34;8260809;28;19926;-84
2022/03/10 08:20:39;;;;;;;;;;;6.50;47.60;;;4.88;49.11;102815.38;8235370;28;19928;-85
2022/03/10 08:25:00;;;;;;;;;;;6.60;47.20;;;5.05;48.70;102803.34;8233619;28;19921;-86
2022/03/10 08:29:23;;;;;;;;;;;6.90;48.50;;;5.30;48.81;102805.94;8235327;28;19926;-84
2022/03/10 08:33:45;;;;;;;;;;;7.30;47.80;;;5.60;48.77;102810.25;8239362;28;19928;-84
2022/03/10 08:38:07;;;;;;;;;;;7.60;47.70;;;5.90;48.92;102829.22;8232890;28;19928;-82
2022/03/10 08:42:29;;;;;;;;;;;7.80;48.70;;;6.10;49.23;102822.31;8236440;28;19926;-83
2022/03/10 08:46:51;;;;;;;;;;;8.00;47.50;;;6.40;48.88;102833.47;8234995;28;19928;-82
2022/03/10 08:51:12;;;;;;;;;;;8.20;48.30;;;6.60;49.24;102831.63;8235319;28;19928;-82
2022/03/10 08:55:34;;;;;;;;;;;8.50;48.00;;;6.79;49.28;102810.78;8242690;28;19921;-83
2022/03/10 08:59:55;;;;;;;;;;;8.70;47.40;;;7.07;48.84;102821.84;8260087;28;19928;-81
2022/03/10 09:04:17;;;;;;;;;;;8.90;47.30;;;7.31;49.01;102821.66;8236082;28;19930;-77
2022/03/10 09:08:38;;;;;;;;;;;9.20;47.90;;;7.40;48.92;102794.75;8255937;28;19932;-77
2022/03/10 09:13:00;;;;;;;;;;;9.40;48.10;;;7.32;48.97;102754.97;8238406;28;19932;-80
2022/03/10 09:17:21;;;;;;;;;;;9.60;47.40;;;7.82;48.91;102818.63;8231517;28;19931;-80
2022/03/10 09:21:43;;;;;;;;;;;9.80;47.00;;;8.07;49.31;102824.41;8247849;28;19928;-79
2022/03/10 09:26:05;;;;;;;;;;;10.00;46.70;;;8.15;49.07;102798.31;8239393;28;19928;-80
2022/03/10 09:30:26;;;;;;;;;;;10.20;46.80;;;8.47;49.28;102837.00;8238367;28;19932;-80
2022/03/10 09:34:48;;;;;;;;;;;10.40;46.70;;;8.72;48.94;102848.00;8251430;28;19928;-79
2022/03/10 09:39:10;;;;;;;;;;;10.60;46.40;;;8.69;49.31;102803.72;8232993;28;19927;-81
2022/03/10 09:43:33;;;;;;;;;;;10.80;46.30;;;8.94;48.75;102821.63;8211877;28;19932;-81
2022/03/10 09:47:55;;;;;;;;;;;11.00;46.40;;;9.11;48.68;102819.63;8239141;28;19929;-80
2022/03/10 09:52:16;;;;;;;;;;;11.10;46.30;;;9.24;48.85;102831.59;8247090;28;19922;-81
2022/03/10 09:56:40;;;;;;;;;;;11.20;46.50;;;9.36;48.97;102822.72;8237468;28;19928;-81
2022/03/10 10:01:07;;;;;;;;;;;11.40;46.30;;;9.53;48.98;102825.91;8209482;28;19921;-81
2022/03/10 10:05:31;;;;;;;;;;;11.50;46.40;;;9.60;48.88;102817.97;8227251;28;19925;-81
2022/03/10 10:09:55;;;;;;;;;;;11.60;46.10;;;9.83;48.61;102835.81;8245009;28;19921;-81
2022/03/10 10:14:35;;;;;;;;;;;11.70;45.80;;;9.82;48.56;102819.31;8255838;28;20004;-82
2022/03/10 10:18:58;;;;;;;;;;;11.80;45.70;;;9.98;49.06;102822.50;8245589;28;20020;-84
2022/03/10 10:23:29;;;;;;;;;;;11.90;45.50;;;10.10;48.90;102837.94;8245669;28;20402;-85
2022/03/10 10:27:50;;;;;;;;;;;12.00;45.30;;;10.22;48.35;102851.63;8235780;28;19921;-82
2022/03/10 10:32:12;;;;;;;;;;;12.10;45.30;;;10.20;48.25;102841.22;8274767;28;20004;-81
2022/03/10 10:36:37;;;;;;;;;;;12.10;44.90;;;10.21;48.40;102835.13;8238952;28;20012;-80
2022/03/10 10:41:16;;;;;;;;;;;12.20;44.60;;;10.30;48.57;102858.47;8257826;28;20012;-82
2022/03/10 10:45:38;;;;;;;;;;;12.20;44.60;;;10.29;48.38;102837.59;8252433;28;20000;-80
2022/03/10 10:50:06;;;;;;;;;;;12.20;44.50;;;10.26;48.46;102837.63;8236644;28;19929;-80
2022/03/10 10:54:28;;;;;;;;;;;12.20;44.50;;;10.14;47.99;102839.56;8259455;28;20012;-83
2022/03/10 10:58:52;;;;;;;;;;;12.20;44.30;;;10.09;48.60;102830.97;8239721;28;20478;-82
2022/03/10 11:03:28;;;;;;;;;;;12.10;44.20;;;10.16;48.64;102848.25;8262391;28;20008;-81
2022/03/10 11:07:50;;;;;;;;;;;12.10;44.40;;;10.10;48.10;102843.16;8246726;28;19926;-80
2022/03/10 11:12:13;;;;;;;;;;;12.10;44.10;;;10.17;47.79;102844.72;8243033;28;20024;-79
2022/03/10 11:16:35;;;;;;;;;;;12.00;44.30;;;10.19;47.87;102829.91;8264056;28;20020;-80
2022/03/10 11:21:09;;;;;;;;;;;12.00;44.30;;;10.28;47.99;102828.88;8237193;28;20012;-80
2022/03/10 11:25:37;;;;;;;;;;;12.10;44.30;;;10.34;47.67;102833.13;8249695;28;19918;-81
2022/03/10 11:30:00;;;;;;;;;;;12.20;43.90;;;10.34;48.03;102843.56;8236245;28;19922;-80
2022/03/10 11:34:55;;;;;;;;;;;12.10;43.70;;;10.38;47.71;102834.81;8225955;28;19921;-81
2022/03/10 11:39:23;;;;;;;;;;;12.20;43.80;;;10.28;47.55;102813.22;8242202;28;20558;-79
2022/03/10 11:43:57;;;;;;;;;;;12.20;44.10;;;10.44;48.02;102813.78;8241696;28;20325;-80
2022/03/10 11:48:22;;;;;;;;;;;12.30;44.20;;;10.60;47.83;102809.94;8237708;28;19925;-80
2022/03/10 11:52:43;;;;;;;;;;;12.40;43.80;;;10.66;47.33;102806.31;8240614;28;20402;-80
2022/03/10 11:57:09;;;;;;;;;;;12.40;44.10;;;10.76;47.74;102817.44;8243756;28;20323;-80
2022/03/10 12:01:41;;;;;;;;;;;12.50;43.40;;;10.72;47.63;102814.06;8237073;28;20383;-80
2022/03/10 12:06:03;;;;;;;;;;;12.60;43.70;;;10.78;47.31;102805.22;8242389;28;19922;-80
2022/03/10 12:10:39;;;;;;;;;;;12.60;43.60;;;10.82;47.31;102809.47;8241068;28;19926;-80
2022/03/10 12:15:22;;;;;;;;;;;12.70;42.50;;;10.83;47.48;102805.97;8232835;28;20434;-80
2022/03/10 12:20:18;;;;;;;;;;;12.60;42.70;;;10.86;47.26;102798.06;8254953;28;19936;-79
2022/03/10 12:24:39;;;;;;;;;;;12.60;41.90;;;10.90;47.31;102780.53;8243880;28;19922;-80
2022/03/10 12:29:04;;;;;;;;;;;12.60;42.00;;;10.85;46.84;102771.06;8239855;28;19930;-81
2022/03/10 12:33:26;;;;;;;;;;;12.70;42.00;;;10.96;46.66;102768.16;8241733;28;19921;-79
2022/03/10 12:37:48;;;;;;;;;;;12.60;42.40;;;10.85;47.07;102747.53;8227396;28;19922;-80
2022/03/10 12:42:11;;;;;;;;;;;12.70;42.50;;;11.04;46.90;102781.06;8244867;28;19992;-80
2022/03/10 12:46:34;;;;;;;;;;;12.80;42.10;;;11.01;47.27;102766.31;8239415;28;19924;-80
2022/03/10 12:50:56;;;;;;;;;;;12.80;42.10;;;10.93;46.72;102757.78;8246885;28;19926;-81
2022/03/10 12:55:27;;;;;;;;;;;12.80;42.60;;;11.04;46.66;102779.34;8246995;28;20410;-81
2022/03/10 12:59:49;;;;;;;;;;;12.90;42.20;;;11.11;46.73;102782.66;8261259;28;20021;-80
2022/03/10 13:04:13;;;;;;;;;;;12.90;42.60;;;11.10;46.67;102764.38;8260359;28;19924;-81
2022/03/10 13:08:40;;;;;;;;;;;12.80;42.30;;;11.07;46.54;102755.72;8245148;28;19922;-80
2022/03/10 13:13:02;;;;;;;;;;;12.90;42.00;;;11.20;46.88;102771.09;8247566;28;20012;-80
2022/03/10 13:17:38;;;;;;;;;;;13.00;42.00;;;11.16;46.81;102759.88;8233572;28;20017;-80
2022/03/10 13:22:02;;;;;;;;;;;13.30;42.50;;;11.19;47.01;102762.41;8246061;28;20016;-80
2022/03/10 13:26:25;;;;;;;;;;;13.00;42.00;;;11.25;46.32;102764.00;8239473;28;19941;-80
2022/03/10 13:30:47;;;;;;;;;;;13.00;41.60;;;11.16;46.46;102754.63;8246804;28;19928;-80
2022/03/10 13:35:08;;;;;;;;;;;13.00;42.10;;;11.19;46.64;102758.94;8232706;28;20478;-80
2022/03/10 13:39:31;;;;;;;;;;;13.00;42.00;;;10.97;46.33;102733.31;8233230;28;20357;-80
2022/03/10 13:43:52;;;;;;;;;;;13.00;41.90;;;11.15;46.37;102762.50;8232505;28;20013;-81
2022/03/10 13:48:19;;;;;;;;;;;12.90;40.50;;;11.12;46.03;102757.34;8253872;28;19928;-81
2022/03/10 13:52:41;;;;;;;;;;;12.90;40.90;;;11.04;46.52;102740.13;8231210;28;20535;-81
2022/03/10 13:57:02;;;;;;;;;;;12.90;40.00;;;11.14;46.13;102739.88;8240927;28;20118;-83
2022/03/10 14:01:26;;;;;;;;;;;12.80;40.30;;;10.88;46.49;102690.84;8251212;28;19926;-81
2022/03/10 14:05:59;;;;;;;;;;;12.80;40.80;;;11.10;46.06;102712.06;8217898;28;20401;-82
2022/03/10 14:10:30;;;;;;;;;;;12.90;41.20;;;11.12;46.43;102712.91;8244461;28;19937;-81
2022/03/10 14:14:52;;;;;;;;;;;12.90;40.70;;;11.25;46.22;102732.59;8225946;28;20273;-81
2022/03/10 14:19:27;;;;;;;;;;;12.90;39.20;;;11.23;46.42;102716.09;8257937;28;19931;-81
2022/03/10 14:24:00;;;;;;;;;;;12.90;41.10;;;11.20;45.83;102716.19;8259228;28;19921;-81
2022/03/10 14:28:39;;;;;;;;;;;12.90;38.80;;;11.17;45.80;102724.09;8256945;28;19936;-81
2022/03/10 14:33:01;;;;;;;;;;;13.00;41.20;;;10.98;45.82;102685.34;8232962;28;19921;-81
2022/03/10 14:37:23;;;;;;;;;;;12.80;39.90;;;11.14;45.88;102717.19;8233322;28;19931;-81
2022/03/10 14:41:45;;;;;;;;;;;12.90;39.10;;;11.13;45.61;102712.03;8229802;28;19922;-81
2022/03/10 14:46:06;;;;;;;;;;;12.90;39.80;;;11.08;45.79;102710.38;8232174;28;19929;-81
2022/03/10 14:50:28;;;;;;;;;;;12.90;40.30;;;11.05;45.63;102702.59;8244874;28;19926;-80
2022/03/10 14:54:50;;;;;;;;;;;12.90;40.70;;;10.97;45.60;102693.25;8247056;28;20341;-81
2022/03/10 14:59:11;;;;;;;;;;;12.80;39.60;;;11.03;45.31;102709.63;8243152;28;19922;-81
2022/03/10 15:03:33;;;;;;;;;;;13.00;39.80;;;10.94;45.30;102681.09;8214201;28;20282;-80
2022/03/10 15:07:55;;;;;;;;;;;12.80;40.20;;;11.05;45.44;102718.28;8219500;28;19944;-80
2022/03/10 15:12:17;;;;;;;;;;;12.80;37.80;;;10.99;45.16;102708.00;8221199;28;19922;-80
2022/03/10 15:16:38;;;;;;;;;;;12.80;37.50;;;10.82;45.15;102684.00;8225135;28;19922;-81
2022/03/10 15:21:04;;;;;;;;;;;12.70;39.20;;;10.22;44.84;102587.94;8223265;28;19922;-82
2022/03/10 15:25:27;;;;;;;;;;;12.70;39.00;;;10.47;44.99;102627.41;8213288;28;19928;-81
2022/03/10 15:29:48;;;;;;;;;;;12.70;39.80;;;10.89;44.74;102713.50;8240264;28;19925;-80
2022/03/10 15:34:12;;;;;;;;;;;12.60;39.70;;;10.89;45.28;102716.09;8259255;28;19921;-80
2022/03/10 15:38:36;;;;;;;;;;;12.40;40.60;;;10.90;44.75;102717.81;8255875;28;19921;-80
2022/03/10 15:42:58;;;;;;;;;;;12.60;41.00;;;10.79;44.92;102708.47;8256302;28;19925;-80
2022/03/10 15:47:20;;;;;;;;;;;12.60;40.60;;;10.75;44.98;102699.00;8235422;28;19922;-81
2022/03/10 15:51:43;;;;;;;;;;;12.60;40.20;;;10.75;45.52;102706.84;8251274;28;20151;-81
2022/03/10 15:56:06;;;;;;;;;;;12.70;39.90;;;10.68;44.85;102709.63;8256071;28;19922;-80
2022/03/10 16:00:28;;;;;;;;;;;12.40;40.60;;;10.59;45.23;102700.25;8261397;28;19926;-80
2022/03/10 16:04:50;;;;;;;;;;;12.40;40.70;;;10.61;44.92;102701.06;8274846;28;19921;-81
2022/03/10 16:09:11;;;;;;;;;;;12.40;39.00;;;10.56;45.16;102693.34;8266661;28;19926;-81
2022/03/10 16:13:35;;;;;;;;;;;12.30;40.40;;;10.59;44.86;102716.78;8289898;28;20399;-80
2022/03/10 16:17:57;;;;;;;;;;;12.30;39.70;;;10.41;45.14;102696.31;8275477;28;19927;-80
2022/03/10 16:22:21;;;;;;;;;;;12.30;39.70;;;10.52;45.20;102733.50;8270786;28;20361;-81
2022/03/10 16:26:43;;;;;;;;;;;12.20;39.20;;;10.50;45.06;102730.03;8277550;28;19921;-81
2022/03/10 16:31:04;;;;;;;;;;;12.20;39.60;;;10.06;45.23;102677.03;8271930;28;19925;-81
2022/03/10 16:35:29;;;;;;;;;;;12.10;39.90;;;10.25;44.77;102718.41;8276755;28;20004;-81
2022/03/10 16:39:51;;;;;;;;;;;12.10;39.70;;;10.17;44.62;102722.03;8277335;28;19917;-80
2022/03/10 16:44:13;;;;;;;;;;;12.00;39.40;;;10.14;44.78;102735.16;8285827;28;20020;-80
2022/03/10 16:48:35;;;;;;;;;;;11.90;39.30;;;10.08;44.75;102739.66;8257800;28;19922;-80
2022/03/10 16:53:02;;;;;;;;;;;11.80;39.70;;;10.00;44.85;102731.13;8268460;28;19917;-80
2022/03/10 16:57:24;;;;;;;;;;;11.70;39.40;;;9.83;44.38;102716.66;8272066;28;19932;-80
2022/03/10 17:01:45;;;;;;;;;;;11.60;40.10;;;9.89;44.40;102745.25;8255897;28;19918;-80
2022/03/10 17:06:07;;;;;;;;;;;11.60;40.20;;;9.73;44.48;102729.03;8246270;28;19928;-81
2022/03/10 17:10:29;;;;;;;;;;;11.50;40.20;;;9.65;44.41;102727.47;8268066;28;19932;-80
2022/03/10 17:14:51;;;;;;;;;;;11.40;40.50;;;9.61;44.72;102746.66;8266206;28;20457;-80
2022/03/10 17:19:13;;;;;;;;;;;11.30;39.80;;;9.42;44.98;102733.09;8256318;28;19936;-79
2022/03/10 17:23:36;;;;;;;;;;;11.10;40.10;;;9.38;44.55;102754.91;8267976;28;21366;-79
2022/03/10 17:27:58;;;;;;;;;;;11.10;40.10;;;9.21;44.69;102744.78;8273092;28;20367;-80
2022/03/10 17:32:21;;;;;;;;;;;11.00;39.90;;;9.16;44.84;102757.88;8271480;28;19926;-79
2022/03/10 17:36:44;;;;;;;;;;;10.90;40.10;;;9.06;44.50;102751.94;8248295;28;19925;-80
2022/03/10 17:41:06;;;;;;;;;;;10.80;38.70;;;8.96;44.46;102759.94;8259696;28;19922;-80
2022/03/10 17:45:28;;;;;;;;;;;10.70;39.10;;;8.76;44.91;102742.84;8249180;28;19928;-82
2022/03/10 17:49:50;;;;;;;;;;;10.60;39.30;;;8.79;44.51;102757.59;8246700;28;19931;-80
2022/03/10 17:54:12;;;;;;;;;;;10.40;39.30;;;8.71;44.41;102762.91;8262704;28;20028;-80
2022/03/10 17:58:33;;;;;;;;;;;10.30;39.40;;;8.61;44.33;102749.16;8270374;28;19926;-79
2022/03/10 18:02:57;;;;;;;;;;;10.20;38.90;;;8.44;44.60;102737.25;8269835;28;20396;-80
2022/03/10 18:07:19;;;;;;;;;;;10.30;39.20;;;8.30;44.52;102740.88;8260701;28;19921;-80
2022/03/10 18:11:44;;;;;;;;;;;10.20;39.20;;;8.36;44.25;102759.00;8266302;28;19925;-81
2022/03/10 18:16:06;;;;;;;;;;;10.10;38.00;;;8.28;44.42;102768.66;8251461;28;19927;-80
2022/03/10 18:20:27;;;;;;;;;;;10.00;37.80;;;7.92;44.10;102724.00;8265842;28;19928;-81
2022/03/10 18:24:50;;;;;;;;;;;10.00;38.40;;;7.94;44.31;102750.00;8282930;28;19922;-81
2022/03/10 18:29:12;;;;;;;;;;;9.90;38.20;;;7.90;44.17;102746.56;8249110;28;19926;-80
2022/03/10 18:33:33;;;;;;;;;;;9.80;38.20;;;7.76;44.34;102735.47;8239256;28;20309;-79
2022/03/10 18:37:55;;;;;;;;;;;9.60;38.20;;;7.62;43.96;102721.75;8252715;28;19921;-80
2022/03/10 18:42:17;;;;;;;;;;;9.70;38.10;;;7.70;43.90;102761.53;8270229;28;19926;-79
2022/03/10 18:46:38;;;;;;;;;;;9.50;38.60;;;7.65;44.12;102769.38;8249057;28;19921;-79
2022/03/10 18:51:09;;;;;;;;;;;9.80;39.40;;;7.47;43.81;102761.75;8277695;28;20412;-80
2022/03/10 18:55:31;;;;;;;;;;;9.40;38.90;;;7.46;44.33;102768.69;8263580;28;20298;-80
2022/03/10 18:59:52;;;;;;;;;;;9.30;38.10;;;7.41;44.20;102767.88;8278070;28;19928;-80
2022/03/10 19:04:14;;;;;;;;;;;9.20;38.20;;;7.27;43.75;102752.41;8294460;28;19928;-80
2022/03/10 19:08:36;;;;;;;;;;;9.20;39.00;;;7.35;43.80;102778.34;8285434;28;19928;-82
2022/03/10 19:12:58;;;;;;;;;;;9.10;37.50;;;7.19;43.74;102767.19;8263793;28;19935;-80
2022/03/10 19:17:20;;;;;;;;;;;9.00;38.40;;;7.18;43.86;102778.44;8250579;28;19918;-80
2022/03/10 19:21:44;;;;;;;;;;;8.90;39.10;;;7.07;43.92;102781.16;8288488;28;19921;-81
2022/03/10 19:26:06;;;;;;;;;;;8.90;38.80;;;6.90;44.01;102777.81;8284335;28;19918;-81
2022/03/10 19:30:27;;;;;;;;;;;8.70;37.20;;;6.65;43.62;102746.81;8286237;28;20395;-81
2022/03/10 19:34:49;;;;;;;;;;;8.70;37.80;;;6.80;44.10;102786.50;8285600;28;19928;-81
2022/03/10 19:39:10;;;;;;;;;;;8.60;38.70;;;6.71;44.07;102789.19;8271984;28;20043;-82
2022/03/10 19:43:33;;;;;;;;;;;8.50;36.60;;;6.47;44.18;102767.66;8258466;28;20048;-81
2022/03/10 19:47:55;;;;;;;;;;;8.50;38.50;;;6.53;43.83;102780.59;8266893;28;19922;-80
2022/03/10 19:52:18;;;;;;;;;;;8.40;37.80;;;6.44;43.93;102783.25;8273234;28;19936;-81
2022/03/10 19:56:39;;;;;;;;;;;8.30;38.00;;;6.33;43.79;102778.13;8265574;28;19924;-81
2022/03/10 20:01:01;;;;;;;;;;;8.20;37.90;;;5.95;43.71;102729.84;8265212;28;19922;-81
2022/03/10 20:05:24;;;;;;;;;;;8.00;36.70;;;6.21;44.21;102780.75;8285177;28;20343;-80
2022/03/10 20:09:46;;;;;;;;;;;8.10;37.80;;;6.20;43.95;102794.59;8280497;28;19949;-80
2022/03/10 20:14:08;;;;;;;;;;;8.00;38.70;;;6.00;43.75;102773.06;8295773;28;19917;-80
2022/03/10 20:18:30;;;;;;;;;;;7.90;37.90;;;5.94;43.90;102777.41;8285959;28;19921;-81